Portage la Prairie, Canada
Current Conditions -  °F | °C
As of 2:00 AM on Wednesday 26 Nov 2014 (Local Time) from CYWG Reporting Station
Clear Clear  
Wind Chill: -31°   Ceiling: Unl
Heat Index: -13°   Visibility: 15mi
Dew Point: -18°   Wind: 9mph
Humidity: 77%   Direction: 340°NNW
Pressure: 30.33"   Gusts: NA
Location:  49.97°N, 98.29°W
Report Text: CYWG 260800Z 34008KT 15SM SKC M25/M28 A3033 RMK SLP299
Loading
Personal Weather Stations






























Interactive Weather Map New forecast layout! Learn more

10-Day Weather Forecast

Advertisements
Track Severe Weather on mobile